Impacts TAF Board
For situational awareness. Not to be used for flight planning purposes.
IDs:

KDCA - Washington/National, VA, US

Issued at 2320 UTC 22 Oct 2018
Updated at 0340 UTC 23 Oct 2018
Potential Impact None Slight Moderate High
Time<<23/16Z 23/17Z 23/18Z 23/19Z 23/20Z 23/21Z 23/22Z 23/23Z 24/00Z 24/01Z 24/02Z 24/03Z 24/04Z>>
Type PRVL PRVL PRVL PRVL PRVL PRVL PRVL PRVL PRVL PRVL PRVL PRVL PRVL
VIS >6 >6 >6 >6 >6 >6 >6 >6 >6 >6 >6 >6 >6
CIG -- -- -- -- -- -- -- -- -- -- -- -- --
Cover FEW FEW FEW FEW FEW SCT SCT SCT SCT SCT SCT SCT SCT
FltCat VFR VFR VFR VFR VFR VFR VFR VFR VFR VFR VFR VFR VFR
WX -- -- -- -- -- -- -- -- -- -- -- -- --
WDir 230 230 250 250 250 290 290 290 290 290 290 290 290
WSpd 6 6 10 10 10 11 11 11 11 11 11 11 11
WGst -- -- 18 18 18 19 19 19 19 19 19 19 19
Raw TAF
KDCA 222320Z 2300/2406 19008KT P6SM FEW090 SCT250
  FM231400 23006KT P6SM FEW250
  FM231800 25010G18KT P6SM FEW200 FEW250
  FM232100 29011G19KT P6SM FEW080 SCT250


METAR Board
Radar Display
Forecast Discussion
For situational awareness. Not to be used for flight planning purposes.